Alpena, South Dakota
Current Conditions -  °F | °C
As of 10:13 PM on Thursday 20 Nov 2014 (Local Time) from KHON Reporting Station
Scattered Clouds Scattered Clouds  
Wind Chill: -3°   Ceiling: Unl
Heat Index: 11°   Visibility: 10mi
Dew Point:   Wind: 10mph
Humidity: 81%   Direction: 150°SSE
Pressure: 30.11"   Gusts: NA
Location:  44.18°N, 98.37°W
Report Text: KHON 210413Z AUTO 15009KT 10SM SCT012 M12/M14 A3011 RMK AO2 T11171144
Loading
Personal Weather Stations






























Interactive Weather Map New forecast layout! Learn more

10-Day Weather Forecast

Advertisements
Track Severe Weather on mobile